Bradford, New York
Current Conditions -  °F | °C
As of 6:53 PM on Monday 20 Oct 2014 (Local Time) from KELM Reporting Station
Few Clouds Few Clouds  
Wind Chill: 12°   Ceiling: Unl
Heat Index: 12°   Visibility: 10mi
Dew Point:   Wind: 6mph
Humidity: 57%   Direction: 190°S
Pressure: 29.88"   Gusts: NA
Location:  42.37°N, 77.11°W
Report Text: KELM 202253Z 19005KT 10SM FEW120 12/04 A2988 RMK AO2 SLP123 T01220039
Loading
Personal Weather Stations






























Interactive Weather Map
Tropical Storm Tracking
New forecast layout! Learn more

10-Day Weather Forecast

Advertisements
Track Severe Weather on mobile